This is the latest recevied weather packets stored in our database for station/object KP4CRN. If no packets are shown the sender has not sent any weather packets the latest 10 day(s).
| Time | Temp. | Humidity | Pressure | Rain* | Wind** | Luminosity | Snow |
|---|---|---|---|---|---|---|---|
| 1777723906 | 27.78° C | 83% | 1017 hPa | 0 mm | - | 319 W/m² | - |
| 1777723602 | 27.78° C | 84% | 1017.1 hPa | 0 mm | - | 285 W/m² | - |
| 1777723299 | 27.78° C | 85% | 1016.9 hPa | 0 mm | - | 270 W/m² | - |
| 1777722996 | 27.22° C | 85% | 1017.1 hPa | 0 mm | - | 255 W/m² | - |
| 1777722692 | 27.22° C | 86% | 1017 hPa | 0 mm | - | 237 W/m² | - |
| 1777722388 | 26.67° C | 87% | 1016.9 hPa | 0 mm | - | 223 W/m² | - |
| 1777722086 | 26.67° C | 87% | 1016.8 hPa | 0 mm | - | 208 W/m² | - |
| 1777721783 | 27.22° C | 86% | 1016.9 hPa | 0 mm | - | 205 W/m² | - |
| 1777721482 | 27.78° C | 84% | 1016.8 hPa | 0 mm | - | 180 W/m² | - |
| 1777721179 | 27.78° C | 84% | 1016.8 hPa | 0 mm | - | 166 W/m² | - |
| 1777720876 | 27.22° C | 87% | 1016.6 hPa | 0 mm | - | 153 W/m² | - |
| 1777720574 | 26.11° C | 89% | 1016.5 hPa | 0 mm | - | 139 W/m² | - |
| 1777720271 | 26.11° C | 88% | 1016.4 hPa | 0 mm | - | 128 W/m² | - |
| 1777719969 | 26.11° C | 90% | 1016.6 hPa | 0 mm | - | 114 W/m² | - |
| 1777719666 | 26.11° C | 89% | 1016.5 hPa | 0 mm | - | 103 W/m² | - |
| 1777719363 | 26.11° C | 90% | 1016.4 hPa | 0 mm | - | 93 W/m² | - |
| 1777719060 | 25.56° C | 91% | 1016.4 hPa | 0 mm | - | 83 W/m² | - |
| 1777718757 | 25.56° C | 92% | 1016.3 hPa | 0 mm | - | 72 W/m² | - |
| 1777718455 | 25° C | 93% | 1016.2 hPa | 0 mm | - | 60 W/m² | - |
| 1777718152 | 25° C | 94% | 1016.1 hPa | 0 mm | - | 51 W/m² | - |
| 1777717850 | 24.44° C | 95% | 1015.9 hPa | 0 mm | - | 42 W/m² | - |
| 1777717546 | 23.89° C | 96% | 1016.1 hPa | 0 mm | - | 32 W/m² | - |
| 1777717243 | 23.89° C | 97% | 1016 hPa | 0 mm | - | 24 W/m² | - |
| 1777716942 | 23.89° C | 97% | 1015.8 hPa | 0 mm | - | 18 W/m² | - |
| 1777716640 | 23.89° C | 97% | 1015.8 hPa | 0 mm | - | 13 W/m² | - |
* Rain latest hour (hover to see other rain measurements)
** Current wind speed in m/s (hover to see current wind gust speed)